createdAt,value
2019-02-22T00:00:55.692Z,50.10
2019-02-22T00:03:25.766Z,50.30
2019-02-22T00:05:55.916Z,50.00
2019-02-22T00:08:26.076Z,50.00
2019-02-22T00:10:56.111Z,50.40
2019-02-22T00:13:26.491Z,50.10
2019-02-22T00:15:56.835Z,49.50
2019-02-22T00:18:28.340Z,49.50
2019-02-22T00:20:58.376Z,49.50
2019-02-22T00:23:28.383Z,49.90
2019-02-22T00:25:58.824Z,49.30
2019-02-22T00:28:30.003Z,49.40
2019-02-22T00:31:00.380Z,49.30
2019-02-22T00:33:30.469Z,49.80
2019-02-22T00:36:00.674Z,50.00
2019-02-22T00:38:32.099Z,50.30
2019-02-22T00:41:02.500Z,50.60
2019-02-22T00:43:32.511Z,50.80
2019-02-22T00:46:02.837Z,51.00
2019-02-22T00:48:33.040Z,51.60
2019-02-22T00:51:03.080Z,52.00
2019-02-22T00:53:33.093Z,52.30
2019-02-22T00:56:04.131Z,52.30
2019-02-22T00:58:34.183Z,52.50
2019-02-22T01:01:04.641Z,52.60
2019-02-22T01:03:34.658Z,52.80
2019-02-22T01:06:04.677Z,52.90
2019-02-22T01:08:34.671Z,53.00
2019-02-22T01:11:05.043Z,53.70
2019-02-22T01:13:35.059Z,53.30
2019-02-22T01:16:05.551Z,53.50
2019-02-22T01:18:35.587Z,53.60
2019-02-22T01:21:05.645Z,53.80
2019-02-22T01:23:36.057Z,53.90
2019-02-22T01:26:06.159Z,54.00
2019-02-22T01:28:36.184Z,54.60
2019-02-22T01:31:06.418Z,54.10
2019-02-22T01:33:36.459Z,54.10
2019-02-22T01:36:06.554Z,54.00
2019-02-22T01:38:36.575Z,54.00
2019-02-22T01:41:06.710Z,53.90
2019-02-22T01:43:36.937Z,54.10
2019-02-22T01:46:06.954Z,54.30
2019-02-22T01:48:37.178Z,54.30
2019-02-22T01:51:07.380Z,54.40
2019-02-22T01:53:37.491Z,54.30
2019-02-22T01:56:07.510Z,54.50
2019-02-22T01:58:47.997Z,54.30
2019-02-22T02:01:09.378Z,54.30
2019-02-22T02:03:39.622Z,54.40
2019-02-22T02:06:09.636Z,54.60
2019-02-22T02:08:39.840Z,54.70
2019-02-22T02:11:09.952Z,54.80
2019-02-22T02:13:40.009Z,54.70
2019-02-22T02:16:10.181Z,54.70
2019-02-22T02:18:40.334Z,54.70
2019-02-22T02:21:10.354Z,54.90
2019-02-22T02:23:40.378Z,55.00
2019-02-22T02:26:10.486Z,55.20
2019-02-22T02:28:40.600Z,55.30
2019-02-22T02:31:10.707Z,55.10
2019-02-22T02:33:40.754Z,55.10
2019-02-22T02:36:10.789Z,55.20
2019-02-22T02:38:40.816Z,55.30
2019-02-22T02:41:11.667Z,55.50
2019-02-22T02:43:41.999Z,55.50
2019-02-22T02:46:12.426Z,55.80
2019-02-22T02:48:42.736Z,55.90
2019-02-22T02:51:13.198Z,55.80
2019-02-22T02:53:43.242Z,56.60
2019-02-22T02:56:13.578Z,55.90
2019-02-22T02:58:43.945Z,56.10
2019-02-22T03:01:14.158Z,56.50
2019-02-22T03:03:44.216Z,56.50
2019-02-22T03:06:38.228Z,56.20
2019-02-22T03:09:10.031Z,56.40
2019-02-22T03:11:40.121Z,56.70
2019-02-22T03:14:16.840Z,56.70
2019-02-22T03:16:47.255Z,56.90
2019-02-22T03:19:17.416Z,57.70
2019-02-22T03:21:47.429Z,57.30
2019-02-22T03:24:17.498Z,57.30
2019-02-22T03:26:48.760Z,57.60
2019-02-22T03:29:20.022Z,58.10
2019-02-22T03:31:51.072Z,58.20
2019-02-22T03:34:21.470Z,58.70
2019-02-22T03:36:51.559Z,58.80
2019-02-22T03:39:21.611Z,58.80
2019-02-22T03:41:51.975Z,59.10
2019-02-22T03:44:22.266Z,59.20
2019-02-22T03:46:52.407Z,59.00
2019-02-22T03:49:22.406Z,59.20
2019-02-22T03:51:52.798Z,59.20
2019-02-22T03:54:22.834Z,59.20
2019-02-22T03:56:52.885Z,59.20
2019-02-22T03:59:22.933Z,59.20
2019-02-22T04:01:52.967Z,58.90
2019-02-22T04:04:23.097Z,58.80
2019-02-22T04:06:53.464Z,58.80
2019-02-22T04:09:23.573Z,58.60
2019-02-22T04:11:54.100Z,58.60
2019-02-22T04:14:24.129Z,58.40
2019-02-22T04:16:54.269Z,58.30
2019-02-22T04:19:24.303Z,58.30
2019-02-22T04:21:54.356Z,58.30
2019-02-22T04:24:24.385Z,58.40
2019-02-22T04:26:54.402Z,58.30
2019-02-22T04:29:24.439Z,58.30
2019-02-22T04:31:54.446Z,58.30
2019-02-22T04:34:24.795Z,58.20
2019-02-22T04:36:55.559Z,58.20
2019-02-22T04:39:25.569Z,58.10
2019-02-22T04:41:58.228Z,58.10
2019-02-22T04:44:27.647Z,58.10
2019-02-22T04:46:57.868Z,58.00
2019-02-22T04:49:27.918Z,58.10
2019-02-22T04:51:58.045Z,58.70
2019-02-22T04:54:29.246Z,58.20
2019-02-22T04:56:59.271Z,58.20
2019-02-22T04:59:29.669Z,58.20
2019-02-22T05:01:59.713Z,58.20
2019-02-22T05:04:29.836Z,58.30
2019-02-22T05:06:59.967Z,58.60
2019-02-22T05:09:30.206Z,58.80
2019-02-22T05:12:10.298Z,58.90
2019-02-22T05:14:32.145Z,59.20
2019-02-22T05:17:02.168Z,59.30
2019-02-22T05:19:32.285Z,59.30
2019-02-22T05:22:02.335Z,59.50
2019-02-22T05:24:33.538Z,59.30
2019-02-22T05:27:03.730Z,59.20
2019-02-22T05:29:33.784Z,59.30
2019-02-22T05:32:03.833Z,59.20
2019-02-22T05:34:34.122Z,59.10
2019-02-22T05:37:04.131Z,59.30
2019-02-22T05:39:34.243Z,59.30
2019-02-22T05:42:04.297Z,59.60
2019-02-22T05:44:34.517Z,59.60
2019-02-22T05:47:04.768Z,59.70
2019-02-22T05:49:35.160Z,59.90
2019-02-22T05:52:05.434Z,59.80
2019-02-22T05:54:35.548Z,59.90
2019-02-22T05:57:05.671Z,59.90
2019-02-22T05:59:36.129Z,59.80
2019-02-22T06:02:06.388Z,60.00
2019-02-22T06:04:36.448Z,60.00
2019-02-22T06:07:06.670Z,60.00
2019-02-22T06:09:36.937Z,59.90
2019-02-22T06:12:07.348Z,60.20
2019-02-22T06:14:37.391Z,60.70
2019-02-22T06:17:14.570Z,61.00
2019-02-22T06:19:39.256Z,61.30
2019-02-22T06:22:09.332Z,61.20
2019-02-22T06:24:39.679Z,61.30
2019-02-22T06:27:12.282Z,61.30
2019-02-22T06:29:42.682Z,61.60
2019-02-22T06:32:12.734Z,61.30
2019-02-22T06:34:43.052Z,61.10
2019-02-22T06:37:13.488Z,61.10
2019-02-22T06:39:43.587Z,61.00
2019-02-22T06:42:13.629Z,60.90
2019-02-22T06:44:44.007Z,61.20
2019-02-22T06:47:14.070Z,61.10
2019-02-22T06:49:44.611Z,61.00
2019-02-22T06:52:14.889Z,60.90
2019-02-22T06:54:44.988Z,61.10
2019-02-22T06:57:15.059Z,61.20
2019-02-22T06:59:46.263Z,60.90
2019-02-22T07:02:16.354Z,61.00
2019-02-22T07:04:46.785Z,61.00
2019-02-22T07:07:16.847Z,61.50
2019-02-22T07:09:47.147Z,60.90
2019-02-22T07:12:29.587Z,60.90
2019-02-22T07:14:59.639Z,60.90
2019-02-22T07:17:29.686Z,61.00
2019-02-22T07:19:59.745Z,61.20
2019-02-22T07:22:29.762Z,61.40
2019-02-22T07:24:59.796Z,61.30
2019-02-22T07:27:29.886Z,61.30
2019-02-22T07:29:59.907Z,61.30
2019-02-22T07:32:29.915Z,61.30
2019-02-22T07:34:59.982Z,61.30
2019-02-22T07:37:30.007Z,61.30
2019-02-22T07:40:00.225Z,61.40
2019-02-22T07:42:30.354Z,61.50
2019-02-22T07:45:00.555Z,61.40
2019-02-22T07:47:31.131Z,61.40
2019-02-22T07:50:01.271Z,61.40
2019-02-22T07:52:31.663Z,61.60
2019-02-22T07:55:01.695Z,61.60
2019-02-22T08:09:22.807Z,62.20
2019-02-22T08:11:52.990Z,62.50
2019-02-22T08:14:23.257Z,62.60
2019-02-22T08:16:53.423Z,62.40
2019-02-22T08:19:23.517Z,62.50
2019-02-22T08:21:53.733Z,62.50
2019-02-22T08:24:25.938Z,62.20
2019-02-22T08:26:55.768Z,62.40
2019-02-22T08:29:25.930Z,62.50
2019-02-22T08:31:56.099Z,62.40
2019-02-22T08:34:26.311Z,62.40
2019-02-22T08:36:56.526Z,62.30
2019-02-22T08:39:26.727Z,62.20
2019-02-22T08:41:57.283Z,62.50
2019-02-22T08:44:27.324Z,62.20
2019-02-22T08:46:57.519Z,62.10
2019-02-22T08:49:27.995Z,62.10
2019-02-22T08:51:58.165Z,62.20
2019-02-22T08:54:28.312Z,62.00
2019-02-22T08:56:58.702Z,62.00
2019-02-22T08:59:28.837Z,62.20
2019-02-22T09:01:58.878Z,62.20
2019-02-22T09:04:28.973Z,62.50
2019-02-22T09:06:59.203Z,62.40
2019-02-22T09:09:29.390Z,62.60
2019-02-22T09:11:59.492Z,62.50
2019-02-22T09:14:29.853Z,62.50
2019-02-22T09:17:00.325Z,62.40
2019-02-22T09:19:31.628Z,63.00
2019-02-22T09:22:02.029Z,62.70
2019-02-22T09:24:32.102Z,62.70
2019-02-22T09:27:02.159Z,62.30
2019-02-22T09:29:32.589Z,62.40
2019-02-22T09:32:08.586Z,62.50
2019-02-22T09:34:38.602Z,62.70
2019-02-22T09:37:08.625Z,62.60
2019-02-22T09:39:38.674Z,62.50
2019-02-22T09:42:08.705Z,62.40
2019-02-22T09:44:38.888Z,63.20
2019-02-22T09:47:09.259Z,61.80
2019-02-22T09:49:39.372Z,62.60
2019-02-22T09:52:09.418Z,62.70
2019-02-22T09:54:39.489Z,62.70
2019-02-22T09:57:09.884Z,62.90
2019-02-22T09:59:40.289Z,62.80
2019-02-22T10:02:11.384Z,62.40
2019-02-22T10:04:41.436Z,62.40
2019-02-22T10:07:11.483Z,62.50
2019-02-22T10:09:41.499Z,62.50
2019-02-22T10:12:11.581Z,62.40
2019-02-22T10:14:43.476Z,62.50
2019-02-22T10:17:13.517Z,62.60
2019-02-22T10:19:43.581Z,62.70
2019-02-22T10:22:13.604Z,62.80
2019-02-22T10:24:43.680Z,62.90
2019-02-22T10:27:13.729Z,62.90
2019-02-22T10:29:43.791Z,63.00
2019-02-22T10:32:15.883Z,63.10
2019-02-22T10:34:45.970Z,63.30
2019-02-22T10:37:15.995Z,63.40
2019-02-22T10:39:46.070Z,63.20
2019-02-22T10:42:16.116Z,63.20
2019-02-22T10:44:46.580Z,63.70
2019-02-22T10:47:16.653Z,63.10
2019-02-22T10:49:47.105Z,63.10
2019-02-22T10:52:18.747Z,62.60
2019-02-22T10:54:48.785Z,62.70
2019-02-22T10:57:19.142Z,62.60
2019-02-22T10:59:49.692Z,62.60
2019-02-22T11:02:19.817Z,62.40
2019-02-22T11:04:50.239Z,62.50
2019-02-22T11:07:20.269Z,62.50
2019-02-22T11:09:50.423Z,62.50
2019-02-22T11:12:20.461Z,62.60
2019-02-22T11:14:50.605Z,62.60
2019-02-22T11:17:20.653Z,63.00
2019-02-22T11:19:51.135Z,63.00
2019-02-22T11:22:21.134Z,63.20
2019-02-22T11:24:51.191Z,63.10
2019-02-22T11:27:21.199Z,63.20
2019-02-22T11:29:51.249Z,62.80
2019-02-22T11:32:21.892Z,62.50
2019-02-22T11:34:52.089Z,62.20
2019-02-22T11:37:22.520Z,62.20
2019-02-22T11:39:52.754Z,62.30
2019-02-22T11:42:24.167Z,62.20
2019-02-22T11:44:54.455Z,62.30
2019-02-22T11:47:24.493Z,61.50
2019-02-22T11:49:54.518Z,61.60
2019-02-22T11:52:24.533Z,61.40
2019-02-22T11:54:54.591Z,61.50
2019-02-22T11:57:25.089Z,61.40
2019-02-22T11:59:55.081Z,61.40
2019-02-22T12:02:25.458Z,61.10
2019-02-22T12:04:56.571Z,60.90
2019-02-22T12:07:26.595Z,60.70
2019-02-22T12:09:56.667Z,60.50
2019-02-22T12:12:26.713Z,60.30
2019-02-22T12:14:57.276Z,60.10
2019-02-22T12:17:27.385Z,60.20
2019-02-22T12:19:57.795Z,60.20
2019-02-22T12:22:27.920Z,60.50
2019-02-22T12:24:58.234Z,60.50
2019-02-22T12:27:28.401Z,60.60
2019-02-22T12:29:58.915Z,60.80
2019-02-22T12:32:29.164Z,60.80
2019-02-22T12:34:59.193Z,60.80
2019-02-22T12:37:29.476Z,60.40
2019-02-22T12:39:59.586Z,60.50
2019-02-22T12:42:29.819Z,60.40
2019-02-22T12:45:03.222Z,59.80
2019-02-22T12:47:32.209Z,59.80
2019-02-22T12:50:02.241Z,60.10
2019-02-22T12:52:32.284Z,59.80
2019-02-22T12:55:02.474Z,59.60
2019-02-22T12:57:34.196Z,59.80
2019-02-22T13:00:04.628Z,59.90
2019-02-22T13:02:35.047Z,59.10
2019-02-22T13:07:45.630Z,58.90
2019-02-22T13:10:15.759Z,58.80
2019-02-22T13:12:46.121Z,58.70
2019-02-22T13:15:16.413Z,58.80
2019-02-22T13:17:46.552Z,59.30
2019-02-22T13:20:19.916Z,59.60
2019-02-22T13:22:51.093Z,59.50
2019-02-22T13:25:22.167Z,58.90
2019-02-22T13:27:52.587Z,58.60
2019-02-22T13:30:22.728Z,58.50
2019-02-22T13:32:53.171Z,58.60
2019-02-22T13:35:23.990Z,58.60
2019-02-22T13:37:54.559Z,58.50
2019-02-22T13:40:24.688Z,58.50
2019-02-22T13:42:54.734Z,58.40
2019-02-22T13:45:26.892Z,58.20
2019-02-22T13:47:56.741Z,58.00
2019-02-22T13:50:26.671Z,58.20
2019-02-22T13:52:57.812Z,58.30
2019-02-22T13:55:28.313Z,57.80
2019-02-22T13:57:58.724Z,57.90
2019-02-22T14:00:29.124Z,58.00
2019-02-22T14:02:59.242Z,58.00
2019-02-22T14:05:29.734Z,57.90
2019-02-22T14:07:59.807Z,57.60
2019-02-22T14:10:29.893Z,57.40
2019-02-22T14:12:59.932Z,57.70
2019-02-22T14:15:37.879Z,58.20
2019-02-22T14:18:02.147Z,57.90
2019-02-22T14:24:07.757Z,58.30
2019-02-22T14:26:37.995Z,58.70
2019-02-22T14:29:08.339Z,58.50
2019-02-22T14:31:38.414Z,58.40
2019-02-22T14:34:08.513Z,58.00
2019-02-22T14:36:38.891Z,57.80
2019-02-22T14:39:09.339Z,57.40
2019-02-22T14:41:39.958Z,57.30
2019-02-22T14:44:10.043Z,57.20
2019-02-22T14:46:40.168Z,57.40
2019-02-22T14:49:10.405Z,57.20
2019-02-22T14:51:41.285Z,57.20
2019-02-22T14:54:11.315Z,56.90
2019-02-22T14:56:41.337Z,56.70
2019-02-22T14:59:11.615Z,56.60
2019-02-22T15:01:41.789Z,56.40
2019-02-22T15:04:11.854Z,56.40
2019-02-22T15:06:41.980Z,56.30
2019-02-22T15:09:12.079Z,56.70
2019-02-22T15:11:42.117Z,56.90
2019-02-22T15:14:12.151Z,56.80
2019-02-22T15:16:58.670Z,56.70
2019-02-22T15:19:29.845Z,56.50
2019-02-22T15:22:01.120Z,56.60
2019-02-22T15:24:33.039Z,57.10
2019-02-22T15:27:03.286Z,56.80
2019-02-22T15:29:33.466Z,56.60
2019-02-22T15:32:03.564Z,56.60
2019-02-22T15:34:34.311Z,56.20
2019-02-22T15:37:04.805Z,56.20
2019-02-22T15:39:35.051Z,56.50
2019-02-22T15:42:05.140Z,56.40
2019-02-22T15:44:35.641Z,56.10
2019-02-22T15:47:11.790Z,55.50
2019-02-22T15:49:38.087Z,55.50
2019-02-22T15:52:10.267Z,55.30
2019-02-22T15:54:40.488Z,55.30
2019-02-22T15:57:10.571Z,55.40
2019-02-22T15:59:40.770Z,55.50
2019-02-22T16:02:10.944Z,55.80
2019-02-22T16:04:51.596Z,55.50
2019-02-22T16:07:21.662Z,55.20
2019-02-22T16:09:51.755Z,55.20
2019-02-22T16:12:22.118Z,54.90
2019-02-22T16:14:52.706Z,54.70
2019-02-22T16:17:23.921Z,54.60
2019-02-22T16:19:54.259Z,54.50
2019-02-22T16:22:24.496Z,54.40
2019-02-22T16:24:55.325Z,54.40
2019-02-22T16:27:25.403Z,54.30
2019-02-22T16:29:55.485Z,54.40
2019-02-22T16:32:27.727Z,54.60
2019-02-22T16:34:57.986Z,54.80
2019-02-22T16:37:28.202Z,55.30
2019-02-22T16:39:58.216Z,55.60
2019-02-22T16:42:28.473Z,55.90
2019-02-22T16:44:58.606Z,55.90
2019-02-22T16:47:39.293Z,56.10
2019-02-22T16:50:00.496Z,56.30
2019-02-22T16:52:30.572Z,56.40
2019-02-22T16:55:00.630Z,56.50
2019-02-22T16:57:30.708Z,56.50
2019-02-22T17:00:01.480Z,56.40
2019-02-22T17:02:33.491Z,56.90
2019-02-22T17:05:03.786Z,56.80
2019-02-22T17:07:35.512Z,56.90
2019-02-22T17:10:06.207Z,57.30
2019-02-22T17:12:36.565Z,57.30
2019-02-22T17:15:07.665Z,57.10
2019-02-22T17:17:38.826Z,57.30
2019-02-22T17:22:47.894Z,57.40
2019-02-22T17:25:17.962Z,57.30
2019-02-22T17:27:48.108Z,57.50
2019-02-22T17:30:18.224Z,57.40
2019-02-22T17:32:48.445Z,57.40
2019-02-22T17:35:18.569Z,57.50
2019-02-22T17:37:49.650Z,57.70
2019-02-22T17:40:19.696Z,57.50
2019-02-22T17:42:49.773Z,57.70
2019-02-22T17:45:19.776Z,58.20
2019-02-22T17:47:49.833Z,57.60
2019-02-22T17:50:23.234Z,57.60
2019-02-22T17:52:53.302Z,57.60
2019-02-22T17:55:23.343Z,57.50
2019-02-22T17:57:53.848Z,57.40
2019-02-22T18:00:25.254Z,57.40
2019-02-22T18:02:55.658Z,57.40
2019-02-22T18:05:25.506Z,57.50
2019-02-22T18:07:55.564Z,57.30
2019-02-22T18:10:26.122Z,57.30
2019-02-22T18:12:56.294Z,57.20
2019-02-22T18:15:26.341Z,57.20
2019-02-22T18:17:57.576Z,57.20
2019-02-22T18:20:27.602Z,57.20
2019-02-22T18:22:57.943Z,57.20
2019-02-22T18:25:28.406Z,57.20
2019-02-22T18:27:58.566Z,57.00
2019-02-22T18:30:30.454Z,57.00
2019-02-22T18:33:00.619Z,56.70
2019-02-22T18:35:32.547Z,56.70
2019-02-22T18:38:02.684Z,56.70
2019-02-22T18:40:32.687Z,57.20
2019-02-22T18:43:02.749Z,56.60
2019-02-22T18:45:32.825Z,56.60
2019-02-22T18:48:30.381Z,56.50
2019-02-22T18:51:00.852Z,56.40
2019-02-22T18:53:31.317Z,56.50
2019-02-22T18:56:01.358Z,56.60
2019-02-22T18:58:31.578Z,56.60
2019-02-22T19:01:01.693Z,56.70
2019-02-22T19:03:31.755Z,56.60
2019-02-22T19:08:32.365Z,56.60
2019-02-22T19:10:58.757Z,56.60
2019-02-22T19:13:28.885Z,56.70
2019-02-22T19:15:58.905Z,56.50
2019-02-22T19:18:29.341Z,56.60
2019-02-22T19:20:59.484Z,56.60
2019-02-22T19:23:29.833Z,56.40
2019-02-22T19:26:00.480Z,56.30
2019-02-22T19:28:31.045Z,56.20
2019-02-22T19:31:01.443Z,56.00
2019-02-22T19:33:31.693Z,55.70
2019-02-22T19:36:02.054Z,55.60
2019-02-22T19:38:32.282Z,55.50
2019-02-22T19:41:02.437Z,55.50
2019-02-22T19:43:32.753Z,55.40
2019-02-22T19:46:03.242Z,55.20
2019-02-22T19:48:33.440Z,55.30
2019-02-22T19:51:03.689Z,55.00
2019-02-22T19:53:33.953Z,54.90
2019-02-22T19:56:04.323Z,54.90
2019-02-22T19:58:35.111Z,54.60
2019-02-22T20:01:05.767Z,54.80
2019-02-22T20:03:36.029Z,55.00
2019-02-22T20:06:06.208Z,54.40
2019-02-22T20:08:36.510Z,55.20
2019-02-22T20:11:06.749Z,55.20
2019-02-22T20:13:36.846Z,54.80
2019-02-22T20:16:07.149Z,55.10
2019-02-22T20:18:38.438Z,54.70
2019-02-22T20:21:08.911Z,54.90
2019-02-22T20:23:39.238Z,54.00
2019-02-22T20:26:09.394Z,54.10
2019-02-22T20:28:39.704Z,53.70
2019-02-22T20:31:19.806Z,53.50
2019-02-22T20:33:42.285Z,53.40
2019-02-22T20:36:12.368Z,53.20
2019-02-22T20:38:42.918Z,52.60
2019-02-22T20:41:13.315Z,52.50
2019-02-22T20:43:43.690Z,52.10
2019-02-22T20:46:14.292Z,52.30
2019-02-22T20:48:47.415Z,52.10
2019-02-22T20:51:17.900Z,52.00
2019-02-22T20:53:48.169Z,51.90
2019-02-22T20:56:18.734Z,52.20
2019-02-22T20:58:49.044Z,52.30
2019-02-22T21:01:19.785Z,51.50
2019-02-22T21:03:50.394Z,52.00
2019-02-22T21:06:20.864Z,51.50
2019-02-22T21:08:51.493Z,51.90
2019-02-22T21:11:21.561Z,51.90
2019-02-22T21:13:51.692Z,51.70
2019-02-22T21:16:23.084Z,52.30
2019-02-22T21:18:53.248Z,52.40
2019-02-22T21:21:24.281Z,52.40
2019-02-22T21:23:54.356Z,52.20
2019-02-22T21:26:24.437Z,52.10
2019-02-22T21:28:54.724Z,52.20
2019-02-22T21:31:25.298Z,51.70
2019-02-22T21:33:55.342Z,51.30
2019-02-22T21:36:25.791Z,51.50
2019-02-22T21:38:56.114Z,50.80
2019-02-22T21:41:26.751Z,51.00
2019-02-22T21:43:57.070Z,51.50
2019-02-22T21:46:28.865Z,51.00
2019-02-22T21:48:59.279Z,49.80
2019-02-22T21:51:30.207Z,50.10
2019-02-22T21:54:00.667Z,50.30
2019-02-22T21:56:30.767Z,50.10
2019-02-22T21:59:01.570Z,50.40
2019-02-22T22:01:31.632Z,49.90
2019-02-22T22:04:01.683Z,50.00
2019-02-22T22:06:31.949Z,49.90
2019-02-22T22:09:02.121Z,49.80
2019-02-22T22:11:33.627Z,49.30
2019-02-22T22:14:03.624Z,48.60
2019-02-22T22:16:33.622Z,48.60
2019-02-22T22:19:03.634Z,48.60
2019-02-22T22:21:33.643Z,48.90
2019-02-22T22:24:03.673Z,48.30
2019-02-22T22:26:34.087Z,48.50
2019-02-22T22:29:04.098Z,48.50
2019-02-22T22:31:34.124Z,48.40
2019-02-22T22:34:04.820Z,48.40
2019-02-22T22:36:34.815Z,48.40
2019-02-22T22:39:05.616Z,48.20
2019-02-22T22:41:36.368Z,47.90
2019-02-22T22:44:06.732Z,48.10
2019-02-22T22:46:37.376Z,47.80
2019-02-22T22:49:07.668Z,47.50
2019-02-22T22:51:37.663Z,48.00
2019-02-22T22:54:07.682Z,47.70
2019-02-22T22:56:38.109Z,47.60
2019-02-22T22:59:08.123Z,48.00
2019-02-22T23:01:39.589Z,47.90
2019-02-22T23:04:09.672Z,47.50
2019-02-22T23:06:39.691Z,47.30
2019-02-22T23:09:17.841Z,47.40
2019-02-22T23:11:47.895Z,47.60
2019-02-22T23:14:17.935Z,47.70
2019-02-22T23:16:48.282Z,47.60
2019-02-22T23:19:18.266Z,47.50
2019-02-22T23:21:48.267Z,47.30
2019-02-22T23:24:18.284Z,47.20
2019-02-22T23:26:48.354Z,47.20
2019-02-22T23:29:18.399Z,47.20
2019-02-22T23:31:48.399Z,47.20
2019-02-22T23:34:18.403Z,47.20
2019-02-22T23:36:48.398Z,47.00
2019-02-22T23:39:18.437Z,46.70
2019-02-22T23:41:48.558Z,47.10
2019-02-22T23:44:18.585Z,47.20
2019-02-22T23:46:48.577Z,47.10
2019-02-22T23:49:19.053Z,47.20
2019-02-22T23:51:49.059Z,47.20
2019-02-22T23:54:19.131Z,47.10
2019-02-22T23:56:49.169Z,47.10
2019-02-22T23:59:19.184Z,47.00
